createdAt,value
2023-02-24T00:02:20.209Z,0.40
2023-02-24T00:04:52.032Z,0.38
2023-02-24T00:07:20.393Z,0.32
2023-02-24T00:09:49.122Z,0.40
2023-02-24T00:12:17.006Z,0.45
2023-02-24T00:14:45.577Z,0.32
2023-02-24T00:17:16.387Z,0.40
2023-02-24T00:19:44.126Z,0.40
2023-02-24T00:22:11.511Z,0.30
2023-02-24T00:24:42.160Z,1.02
2023-02-24T00:27:12.526Z,0.40
2023-02-24T00:29:40.965Z,0.32
2023-02-24T00:32:13.311Z,0.57
2023-02-24T00:34:41.367Z,0.50
2023-02-24T00:37:13.306Z,0.40
2023-02-24T00:39:41.978Z,0.65
2023-02-24T00:42:13.397Z,1.40
2023-02-24T00:44:47.909Z,0.55
2023-02-24T00:47:16.994Z,0.30
2023-02-24T00:49:48.329Z,0.50
2023-02-24T00:52:19.307Z,0.80
2023-02-24T00:54:49.624Z,0.32
2023-02-24T00:57:21.688Z,0.57
2023-02-24T00:59:51.886Z,0.50
2023-02-24T01:02:20.705Z,0.50
2023-02-24T01:04:51.194Z,0.40
2023-02-24T01:07:18.671Z,0.40
2023-02-24T01:09:46.303Z,0.60
2023-02-24T01:12:34.021Z,0.50
2023-02-24T01:15:05.140Z,0.32
2023-02-24T01:17:37.730Z,0.40
2023-02-24T01:20:17.022Z,1.23
2023-02-24T01:22:49.738Z,0.40
2023-02-24T01:25:20.061Z,0.43
2023-02-24T01:27:48.698Z,0.57
2023-02-24T01:30:17.672Z,0.25
2023-02-24T01:32:47.192Z,0.55
2023-02-24T01:35:15.176Z,0.55
2023-02-24T01:37:44.101Z,0.50
2023-02-24T01:40:21.238Z,0.30
2023-02-24T01:42:49.574Z,0.35
2023-02-24T01:45:26.276Z,0.40
2023-02-24T01:47:59.896Z,0.50
2023-02-24T01:50:28.224Z,0.50
2023-02-24T01:53:00.228Z,0.70
2023-02-24T01:55:33.538Z,0.50
2023-02-24T01:58:09.602Z,0.50
2023-02-24T02:00:45.332Z,0.40
2023-02-24T02:03:31.551Z,0.50
2023-02-24T02:06:04.682Z,0.47
2023-02-24T02:08:36.947Z,0.88
2023-02-24T02:11:11.717Z,0.85
2023-02-24T02:13:45.160Z,1.00
2023-02-24T02:16:42.080Z,0.73
2023-02-24T02:19:55.810Z,0.60
2023-02-24T02:22:35.457Z,2.20
2023-02-24T02:25:15.678Z,0.73
2023-02-24T02:27:58.595Z,0.60
2023-02-24T02:30:39.812Z,1.50
2023-02-24T02:33:53.080Z,0.85
2023-02-24T02:36:38.763Z,1.30
2023-02-24T02:39:48.382Z,1.08
2023-02-24T02:42:54.627Z,1.25
2023-02-24T02:45:47.854Z,0.90
2023-02-24T02:48:20.569Z,1.00
2023-02-24T02:51:20.447Z,1.30
2023-02-24T02:54:11.760Z,1.88
2023-02-24T02:57:06.516Z,1.42
2023-02-24T02:59:40.445Z,0.90
2023-02-24T03:02:16.839Z,1.50
2023-02-24T03:04:56.247Z,1.13
2023-02-24T03:07:31.380Z,1.25
2023-02-24T03:10:10.878Z,1.10
2023-02-24T03:12:41.478Z,0.98
2023-02-24T03:15:13.407Z,1.67
2023-02-24T03:17:47.191Z,1.60
2023-02-24T03:20:44.527Z,1.55
2023-02-24T03:23:19.925Z,1.15
2023-02-24T03:26:34.034Z,1.27
2023-02-24T03:29:19.988Z,1.55
2023-02-24T03:31:59.582Z,1.00
2023-02-24T03:34:42.164Z,1.02
2023-02-24T03:37:14.508Z,1.23
2023-02-24T03:39:44.357Z,0.90
2023-02-24T03:42:24.294Z,0.80
2023-02-24T03:44:59.388Z,1.17
2023-02-24T03:47:28.854Z,0.93
2023-02-24T03:50:10.613Z,1.25
2023-02-24T03:52:56.792Z,0.90
2023-02-24T03:55:49.199Z,0.82
2023-02-24T03:58:42.123Z,0.80
2023-02-24T04:01:13.225Z,0.80
2023-02-24T04:03:53.470Z,0.85
2023-02-24T04:07:26.536Z,0.80
2023-02-24T04:10:15.645Z,1.25
2023-02-24T04:12:47.238Z,1.25
2023-02-24T04:15:38.640Z,1.08
2023-02-24T04:18:14.568Z,0.90
2023-02-24T04:20:45.589Z,1.95
2023-02-24T04:23:17.135Z,1.10
2023-02-24T04:25:52.694Z,1.38
2023-02-24T04:28:22.781Z,1.13
2023-02-24T04:30:59.789Z,1.50
2023-02-24T04:33:30.267Z,1.63
2023-02-24T04:36:02.879Z,1.25
2023-02-24T04:38:33.880Z,1.33
2023-02-24T04:41:04.006Z,1.25
2023-02-24T04:43:31.333Z,1.42
2023-02-24T04:46:07.937Z,1.70
2023-02-24T04:48:35.637Z,1.88
2023-02-24T04:51:03.979Z,1.48
2023-02-24T04:53:31.327Z,2.08
2023-02-24T04:56:11.234Z,1.50
2023-02-24T04:58:40.033Z,2.03
2023-02-24T05:01:10.946Z,1.95
2023-02-24T05:03:50.258Z,1.40
2023-02-24T05:06:21.249Z,1.38
2023-02-24T05:08:52.587Z,2.10
2023-02-24T05:11:32.666Z,1.50
2023-02-24T05:13:59.978Z,1.95
2023-02-24T05:16:31.188Z,1.48
2023-02-24T05:19:18.187Z,1.67
2023-02-24T05:21:45.256Z,1.75
2023-02-24T05:24:12.494Z,2.03
2023-02-24T05:26:42.005Z,1.90
2023-02-24T05:29:15.562Z,1.55
2023-02-24T05:31:43.085Z,2.05
2023-02-24T05:34:17.172Z,1.42
2023-02-24T05:36:46.174Z,1.85
2023-02-24T05:39:19.314Z,1.65
2023-02-24T05:41:54.804Z,1.42
2023-02-24T05:44:23.481Z,1.83
2023-02-24T05:46:59.065Z,2.17
2023-02-24T05:49:34.038Z,1.42
2023-02-24T05:52:07.897Z,1.38
2023-02-24T05:54:43.634Z,2.42
2023-02-24T05:57:20.075Z,1.40
2023-02-24T05:59:52.360Z,1.73
2023-02-24T06:02:29.867Z,1.40
2023-02-24T06:05:01.059Z,1.73
2023-02-24T06:07:36.569Z,1.45
2023-02-24T06:10:14.635Z,1.35
2023-02-24T06:12:42.211Z,1.58
2023-02-24T06:15:11.311Z,1.17
2023-02-24T06:17:39.538Z,1.40
2023-02-24T06:20:16.643Z,1.35
2023-02-24T06:22:47.157Z,1.17
2023-02-24T06:25:18.667Z,1.10
2023-02-24T06:27:46.336Z,1.40
2023-02-24T06:30:17.478Z,1.15
2023-02-24T06:32:48.556Z,1.10
2023-02-24T06:35:23.588Z,1.98
2023-02-24T06:37:50.836Z,1.63
2023-02-24T06:40:21.255Z,1.60
2023-02-24T06:42:54.119Z,1.45
2023-02-24T06:45:24.617Z,1.17
2023-02-24T06:47:54.251Z,1.30
2023-02-24T06:50:21.947Z,1.50
2023-02-24T06:52:49.935Z,1.80
2023-02-24T06:55:26.679Z,1.73
2023-02-24T06:58:05.088Z,1.75
2023-02-24T07:00:41.817Z,2.17
2023-02-24T07:03:16.751Z,1.88
2023-02-24T07:06:11.191Z,1.70
2023-02-24T07:08:41.519Z,2.15
2023-02-24T07:11:08.682Z,2.10
2023-02-24T07:13:37.106Z,2.08
2023-02-24T07:16:17.538Z,2.10
2023-02-24T07:18:48.620Z,2.50
2023-02-24T07:21:25.795Z,2.80
2023-02-24T07:23:59.908Z,2.85
2023-02-24T07:26:28.062Z,2.42
2023-02-24T07:28:56.778Z,3.03
2023-02-24T07:31:30.932Z,1.98
2023-02-24T07:34:00.768Z,2.38
2023-02-24T07:36:30.521Z,1.95
2023-02-24T07:39:01.123Z,2.42
2023-02-24T07:41:31.588Z,3.35
2023-02-24T07:44:12.090Z,1.63
2023-02-24T07:46:50.943Z,1.92
2023-02-24T07:49:28.228Z,2.00
2023-02-24T07:51:58.269Z,1.83
2023-02-24T07:54:30.349Z,1.48
2023-02-24T07:57:13.721Z,1.30
2023-02-24T07:59:47.765Z,1.67
2023-02-24T08:02:18.510Z,1.48
2023-02-24T08:04:54.202Z,1.35
2023-02-24T08:07:41.937Z,1.15
2023-02-24T08:10:47.488Z,1.35
2023-02-24T08:13:17.195Z,1.25
2023-02-24T08:15:48.087Z,1.40
2023-02-24T08:18:24.022Z,1.27
2023-02-24T08:20:55.921Z,1.73
2023-02-24T08:23:31.638Z,1.27
2023-02-24T08:27:31.969Z,1.40
2023-02-24T08:30:21.906Z,1.17
2023-02-24T08:32:59.383Z,1.80
2023-02-24T08:35:38.667Z,1.73
2023-02-24T08:38:18.947Z,1.08
2023-02-24T08:40:55.945Z,1.23
2023-02-24T08:43:29.564Z,1.08
2023-02-24T08:45:59.397Z,1.00
2023-02-24T08:48:37.818Z,1.60
2023-02-24T08:51:17.838Z,1.77
2023-02-24T08:53:47.295Z,1.23
2023-02-24T08:56:26.005Z,1.38
2023-02-24T08:59:05.685Z,1.50
2023-02-24T09:01:40.397Z,1.45
2023-02-24T09:04:10.578Z,1.30
2023-02-24T09:06:55.711Z,1.38
2023-02-24T09:09:26.696Z,1.40
2023-02-24T09:12:01.091Z,1.27
2023-02-24T09:14:36.555Z,2.40
2023-02-24T09:17:06.848Z,1.35
2023-02-24T09:19:49.026Z,1.23
2023-02-24T09:22:41.048Z,1.58
2023-02-24T09:25:24.222Z,1.23
2023-02-24T09:27:56.259Z,1.55
2023-02-24T09:30:38.338Z,1.48
2023-02-24T09:33:23.867Z,2.20
2023-02-24T09:36:00.747Z,2.13
2023-02-24T09:42:10.365Z,1.65
2023-02-24T09:44:37.691Z,1.35
2023-02-24T09:47:40.434Z,1.50
2023-02-24T09:52:42.952Z,1.77
2023-02-24T09:55:57.234Z,1.92
2023-02-24T09:58:58.764Z,1.73
2023-02-24T10:01:52.778Z,1.90
2023-02-24T10:04:49.510Z,1.75
2023-02-24T10:07:22.918Z,1.83
2023-02-24T10:10:11.308Z,1.70
2023-02-24T10:12:40.422Z,1.65
2023-02-24T10:15:32.484Z,2.80
2023-02-24T10:18:33.067Z,2.53
2023-02-24T10:21:48.470Z,1.70
2023-02-24T10:24:34.430Z,2.78
2023-02-24T10:27:08.479Z,2.47
2023-02-24T10:29:52.069Z,1.75
2023-02-24T10:32:24.356Z,2.92
2023-02-24T10:37:29.736Z,2.20
2023-02-24T10:40:10.236Z,2.47
2023-02-24T10:43:30.354Z,2.38
2023-02-24T10:46:06.341Z,3.08
2023-02-24T10:48:42.329Z,2.53
2023-02-24T10:51:20.552Z,3.45
2023-02-24T10:54:09.849Z,2.97
2023-02-24T10:56:55.411Z,2.63
2023-02-24T10:59:25.387Z,3.22
2023-02-24T11:02:07.060Z,3.35
2023-02-24T11:05:04.798Z,3.40
2023-02-24T11:07:53.756Z,4.03
2023-02-24T11:10:32.820Z,4.78
2023-02-24T11:13:20.258Z,4.05
2023-02-24T11:16:12.425Z,3.58
2023-02-24T11:18:46.111Z,3.75
2023-02-24T11:21:14.577Z,3.40
2023-02-24T11:23:46.244Z,3.67
2023-02-24T11:26:21.886Z,4.50
2023-02-24T11:29:00.986Z,4.70
2023-02-24T11:31:45.027Z,4.28
2023-02-24T11:34:34.587Z,4.35
2023-02-24T11:37:16.046Z,4.38
2023-02-24T11:40:00.461Z,4.38
2023-02-24T11:42:36.817Z,5.93
2023-02-24T11:45:16.179Z,4.82
2023-02-24T11:47:53.174Z,5.88
2023-02-24T11:51:12.386Z,6.75
2023-02-24T11:53:51.980Z,5.63
2023-02-24T11:56:34.141Z,6.43
2023-02-24T11:59:16.178Z,5.43
2023-02-24T12:01:50.153Z,5.45
2023-02-24T12:04:43.392Z,6.43
2023-02-24T12:07:25.320Z,5.90
2023-02-24T12:10:14.141Z,6.25
2023-02-24T12:13:02.146Z,6.28
2023-02-24T12:15:34.607Z,5.70
2023-02-24T12:18:21.032Z,6.45
2023-02-24T12:21:16.981Z,7.80
2023-02-24T12:23:53.791Z,7.60
2023-02-24T12:26:45.703Z,6.97
2023-02-24T12:29:32.653Z,7.00
2023-02-24T12:32:22.476Z,9.40
2023-02-24T12:35:37.277Z,8.00
2023-02-24T12:38:46.594Z,7.38
2023-02-24T12:41:35.278Z,7.80
2023-02-24T12:44:13.200Z,6.97
2023-02-24T12:46:40.560Z,7.10
2023-02-24T12:49:18.038Z,7.78
2023-02-24T12:52:29.270Z,7.53
2023-02-24T12:55:06.234Z,7.32
2023-02-24T12:58:32.464Z,5.95
2023-02-24T13:01:26.764Z,6.78
2023-02-24T13:04:08.685Z,5.57
2023-02-24T13:07:09.955Z,5.40
2023-02-24T13:09:37.095Z,5.40
2023-02-24T13:12:25.058Z,4.88
2023-02-24T13:14:52.404Z,5.95
2023-02-24T13:17:23.150Z,6.80
2023-02-24T13:19:52.317Z,6.55
2023-02-24T13:22:32.345Z,5.88
2023-02-24T13:25:08.487Z,6.95
2023-02-24T13:27:39.272Z,6.20
2023-02-24T13:30:29.743Z,6.15
2023-02-24T13:33:04.246Z,5.22
2023-02-24T13:35:37.238Z,5.03
2023-02-24T13:38:31.633Z,5.70
2023-02-24T13:41:59.942Z,4.95
2023-02-24T13:44:38.286Z,4.63
2023-02-24T13:47:15.372Z,4.68
2023-02-24T13:49:59.779Z,5.60
2023-02-24T13:57:07.992Z,6.10
2023-02-24T14:00:11.581Z,5.35
2023-02-24T14:02:44.497Z,6.00
2023-02-24T14:05:34.163Z,6.13
2023-02-24T14:08:08.214Z,5.32
2023-02-24T14:19:40.765Z,3.15
2023-02-24T14:22:23.843Z,3.17
2023-02-24T14:25:01.976Z,3.42
2023-02-24T14:27:33.180Z,2.20
2023-02-24T14:30:00.567Z,1.98
2023-02-24T14:32:29.179Z,1.20
2023-02-24T14:35:03.816Z,1.98
2023-02-24T14:37:31.999Z,1.20
2023-02-24T14:40:06.048Z,1.08
2023-02-24T14:42:50.476Z,0.90
2023-02-24T14:45:21.726Z,0.70
2023-02-24T14:47:49.134Z,0.60
2023-02-24T14:50:18.543Z,0.50
2023-02-24T14:52:54.360Z,0.73
2023-02-24T14:55:29.857Z,0.57
2023-02-24T14:58:15.372Z,0.52
2023-02-24T15:00:50.418Z,0.63
2023-02-24T15:03:46.130Z,0.68
2023-02-24T15:06:22.681Z,0.68
2023-02-24T15:09:03.805Z,0.75
2023-02-24T15:11:32.285Z,0.70
2023-02-24T15:14:08.232Z,0.50
2023-02-24T15:16:44.608Z,1.15
2023-02-24T15:19:37.378Z,0.60
2023-02-24T15:25:46.046Z,1.42
2023-02-24T15:31:39.014Z,0.60
2023-02-24T15:34:22.469Z,0.50
2023-02-24T15:36:54.395Z,0.70
2023-02-24T15:39:32.197Z,0.52
2023-02-24T15:42:20.953Z,0.57
2023-02-24T15:44:57.239Z,0.70
2023-02-24T15:47:49.761Z,0.20
2023-02-24T15:50:37.620Z,0.30
2023-02-24T15:53:20.904Z,0.40
2023-02-24T15:58:22.966Z,0.35
2023-02-24T16:00:52.521Z,0.40
2023-02-24T16:03:19.826Z,0.25
2023-02-24T16:05:47.094Z,0.32
2023-02-24T16:08:18.398Z,0.20
2023-02-24T16:10:45.747Z,0.20
2023-02-24T16:13:21.334Z,0.30
2023-02-24T16:15:49.287Z,0.30
2023-02-24T16:18:28.013Z,0.17
2023-02-24T16:20:56.815Z,0.30
2023-02-24T16:23:26.020Z,0.30
2023-02-24T16:25:58.836Z,0.30
2023-02-24T16:28:26.767Z,0.85
2023-02-24T16:30:54.416Z,1.00
2023-02-24T16:33:23.683Z,0.73
2023-02-24T16:35:54.955Z,0.70
2023-02-24T16:38:27.841Z,0.50
2023-02-24T16:40:58.193Z,0.90
2023-02-24T16:43:25.366Z,0.98
2023-02-24T16:45:55.373Z,0.60
2023-02-24T16:48:25.267Z,0.77
2023-02-24T16:50:52.450Z,0.82
2023-02-24T16:53:22.830Z,0.60
2023-02-24T16:55:51.923Z,0.50
2023-02-24T16:58:19.479Z,0.40
2023-02-24T17:00:49.992Z,0.40
2023-02-24T17:03:27.088Z,0.50
2023-02-24T17:05:54.968Z,0.40
2023-02-24T17:08:25.421Z,0.68
2023-02-24T17:10:53.689Z,0.35
2023-02-24T17:13:22.126Z,0.70
2023-02-24T17:15:55.125Z,0.50
2023-02-24T17:18:26.066Z,1.20
2023-02-24T17:20:53.584Z,1.08
2023-02-24T17:23:20.798Z,0.93
2023-02-24T17:25:52.213Z,1.25
2023-02-24T17:28:19.381Z,1.20
2023-02-24T17:30:46.641Z,0.82
2023-02-24T17:33:14.521Z,0.93
2023-02-24T17:35:42.599Z,0.85
2023-02-24T17:38:14.035Z,0.70
2023-02-24T17:40:42.705Z,0.63
2023-02-24T17:43:10.066Z,1.25
2023-02-24T17:45:37.670Z,1.02
2023-02-24T17:48:04.801Z,0.90
2023-02-24T17:50:31.956Z,1.70
2023-02-24T17:52:59.135Z,1.38
2023-02-24T17:55:26.474Z,1.23
2023-02-24T17:57:55.108Z,1.00
2023-02-24T18:00:28.258Z,1.27
2023-02-24T18:02:55.504Z,1.33
2023-02-24T18:05:22.659Z,1.30
2023-02-24T18:07:49.780Z,1.67
2023-02-24T18:10:17.395Z,2.05
2023-02-24T18:12:44.501Z,1.48
2023-02-24T18:20:57.840Z,1.00
2023-02-24T18:26:22.685Z,1.30
2023-02-24T18:28:56.678Z,1.10
2023-02-24T18:31:29.953Z,0.88
2023-02-24T18:36:33.618Z,0.52
2023-02-24T18:39:00.862Z,0.93
2023-02-24T18:41:28.128Z,0.60
2023-02-24T18:43:59.993Z,1.02
2023-02-24T18:46:27.646Z,0.57
2023-02-24T18:48:56.471Z,0.40
2023-02-24T18:51:26.854Z,0.75
2023-02-24T18:53:54.580Z,0.50
2023-02-24T18:56:29.376Z,0.98
2023-02-24T18:59:01.151Z,0.77
2023-02-24T19:01:29.663Z,1.40
2023-02-24T19:04:06.012Z,0.80
2023-02-24T19:06:34.133Z,1.55
2023-02-24T19:09:11.987Z,3.05
2023-02-24T19:11:43.798Z,2.25
2023-02-24T19:14:24.073Z,3.60
2023-02-24T19:20:08.580Z,2.90
2023-02-24T19:22:36.133Z,2.65
2023-02-24T19:25:05.794Z,2.17
2023-02-24T19:27:32.862Z,1.73
2023-02-24T19:30:03.319Z,1.20
2023-02-24T19:32:30.568Z,1.52
2023-02-24T19:34:57.709Z,1.65
2023-02-24T19:37:25.075Z,1.52
2023-02-24T19:39:54.556Z,1.17
2023-02-24T19:42:21.774Z,1.05
2023-02-24T19:44:50.622Z,1.25
2023-02-24T19:47:18.023Z,1.13
2023-02-24T19:49:45.213Z,1.50
2023-02-24T19:52:12.382Z,1.30
2023-02-24T19:54:43.985Z,1.50
2023-02-24T19:57:32.480Z,0.80
2023-02-24T20:00:19.175Z,2.83
2023-02-24T20:10:05.286Z,1.40
2023-02-24T20:12:32.897Z,1.30
2023-02-24T20:15:02.770Z,3.65
2023-02-24T20:17:49.989Z,2.40
2023-02-24T20:20:37.460Z,2.22
2023-02-24T20:23:08.110Z,1.90
2023-02-24T20:25:53.063Z,1.48
2023-02-24T20:28:21.329Z,1.20
2023-02-24T20:30:49.559Z,1.00
2023-02-24T20:33:18.893Z,1.00
2023-02-24T20:35:46.291Z,1.10
2023-02-24T20:38:13.943Z,0.80
2023-02-24T20:40:41.369Z,0.70
2023-02-24T20:43:09.866Z,1.13
2023-02-24T20:45:41.749Z,0.73
2023-02-24T20:48:09.219Z,0.60
2023-02-24T20:50:39.688Z,0.70
2023-02-24T20:56:14.321Z,1.88
2023-02-24T20:58:44.129Z,2.13
2023-02-24T21:01:12.298Z,2.85
2023-02-24T21:03:39.433Z,3.08
2023-02-24T21:06:10.454Z,2.88
2023-02-24T21:08:38.234Z,1.33
2023-02-24T21:11:10.903Z,2.20
2023-02-24T21:13:47.524Z,1.75
2023-02-24T21:16:19.077Z,1.17
2023-02-24T21:18:48.221Z,1.00
2023-02-24T21:21:23.745Z,1.10
2023-02-24T21:23:51.547Z,1.08
2023-02-24T21:26:19.412Z,1.30
2023-02-24T21:28:46.749Z,1.65
2023-02-24T21:31:52.237Z,0.90
2023-02-24T21:34:20.917Z,1.75
2023-02-24T21:36:51.370Z,0.98
2023-02-24T21:46:46.792Z,1.10
2023-02-24T21:49:23.586Z,1.40
2023-02-24T21:51:51.983Z,1.02
2023-02-24T21:54:20.540Z,1.08
2023-02-24T21:56:49.047Z,1.63
2023-02-24T21:59:46.205Z,1.73
2023-02-24T22:02:17.009Z,1.08
2023-02-24T22:04:50.182Z,1.33
2023-02-24T22:07:34.825Z,1.00
2023-02-24T22:10:12.465Z,1.42
2023-02-24T22:13:07.221Z,0.95
2023-02-24T22:15:36.890Z,0.85
2023-02-24T22:20:54.188Z,1.00
2023-02-24T22:23:30.330Z,1.92
2023-02-24T22:29:15.775Z,0.88
2023-02-24T22:31:49.069Z,0.95
2023-02-24T22:34:19.230Z,0.88
2023-02-24T22:38:30.712Z,1.08
2023-02-24T22:41:11.841Z,0.95
2023-02-24T22:43:39.032Z,1.13
2023-02-24T22:46:08.977Z,1.10
2023-02-24T22:48:37.055Z,2.47
2023-02-24T22:51:06.826Z,1.95
2023-02-24T22:53:36.204Z,1.88
2023-02-24T22:56:06.758Z,1.77
2023-02-24T22:58:34.232Z,1.73
2023-02-24T23:01:01.646Z,1.25
2023-02-24T23:03:31.038Z,1.52
2023-02-24T23:06:08.034Z,1.10
2023-02-24T23:08:38.313Z,1.27
2023-02-24T23:11:08.218Z,0.98
2023-02-24T23:13:35.440Z,0.73
2023-02-24T23:16:04.714Z,0.82
2023-02-24T23:18:32.683Z,0.70
2023-02-24T23:21:01.426Z,0.60
2023-02-24T23:23:29.004Z,0.80
2023-02-24T23:25:59.623Z,0.90
2023-02-24T23:28:34.849Z,0.73
2023-02-24T23:31:02.945Z,0.98
2023-02-24T23:33:32.029Z,0.80
2023-02-24T23:36:08.281Z,0.82
2023-02-24T23:38:35.311Z,0.60
2023-02-24T23:41:08.383Z,0.73
2023-02-24T23:43:36.157Z,0.47
2023-02-24T23:46:09.924Z,0.40
2023-02-24T23:48:37.970Z,0.90
2023-02-24T23:51:07.658Z,0.70
2023-02-24T23:53:43.158Z,0.80
2023-02-24T23:56:20.470Z,0.60
2023-02-24T23:58:52.415Z,0.75
